sensor_id;sensor_type;location;lat;lon;timestamp;temperature;humidity
28845;DHT22;15976;47.938;7.758;2022-11-20T00:01:19;10.00;74.00
28845;DHT22;15976;47.938;7.758;2022-11-20T00:03:47;10.00;74.10
28845;DHT22;15976;47.938;7.758;2022-11-20T00:06:16;10.00;74.10
28845;DHT22;15976;47.938;7.758;2022-11-20T00:08:44;10.00;74.00
28845;DHT22;15976;47.938;7.758;2022-11-20T00:13:43;10.00;73.90
28845;DHT22;15976;47.938;7.758;2022-11-20T00:16:12;9.90;73.80
28845;DHT22;15976;47.938;7.758;2022-11-20T00:18:39;10.00;74.00
28845;DHT22;15976;47.938;7.758;2022-11-20T00:21:10;9.90;74.00
28845;DHT22;15976;47.938;7.758;2022-11-20T00:23:37;9.90;74.00
28845;DHT22;15976;47.938;7.758;2022-11-20T00:26:06;9.90;73.90
28845;DHT22;15976;47.938;7.758;2022-11-20T00:28:34;9.80;73.90
28845;DHT22;15976;47.938;7.758;2022-11-20T00:31:11;9.80;73.90
28845;DHT22;15976;47.938;7.758;2022-11-20T00:33:38;9.80;73.90
28845;DHT22;15976;47.938;7.758;2022-11-20T00:36:11;9.80;74.00
28845;DHT22;15976;47.938;7.758;2022-11-20T00:38:38;9.80;74.00
28845;DHT22;15976;47.938;7.758;2022-11-20T00:41:08;9.80;73.90
28845;DHT22;15976;47.938;7.758;2022-11-20T00:43:36;9.80;73.80
28845;DHT22;15976;47.938;7.758;2022-11-20T00:46:18;9.70;73.80
28845;DHT22;15976;47.938;7.758;2022-11-20T00:48:45;9.70;73.90
28845;DHT22;15976;47.938;7.758;2022-11-20T00:51:15;9.70;73.90
28845;DHT22;15976;47.938;7.758;2022-11-20T00:53:42;9.70;74.00
28845;DHT22;15976;47.938;7.758;2022-11-20T00:56:12;9.70;74.10
28845;DHT22;15976;47.938;7.758;2022-11-20T00:58:41;9.70;74.10
28845;DHT22;15976;47.938;7.758;2022-11-20T01:03:40;9.70;74.20
28845;DHT22;15976;47.938;7.758;2022-11-20T01:08:44;9.70;74.10
28845;DHT22;15976;47.938;7.758;2022-11-20T01:11:19;9.70;74.20
28845;DHT22;15976;47.938;7.758;2022-11-20T01:13:48;9.70;74.30
28845;DHT22;15976;47.938;7.758;2022-11-20T01:16:25;9.70;74.30
28845;DHT22;15976;47.938;7.758;2022-11-20T01:18:55;9.70;74.30
28845;DHT22;15976;47.938;7.758;2022-11-20T01:21:25;9.70;74.20
28845;DHT22;15976;47.938;7.758;2022-11-20T01:23:52;9.60;74.20
28845;DHT22;15976;47.938;7.758;2022-11-20T01:26:32;9.70;74.30
28845;DHT22;15976;47.938;7.758;2022-11-20T01:29:00;9.60;74.30
28845;DHT22;15976;47.938;7.758;2022-11-20T01:31:32;9.60;74.20
28845;DHT22;15976;47.938;7.758;2022-11-20T01:34:05;9.60;74.40
28845;DHT22;15976;47.938;7.758;2022-11-20T01:36:34;9.60;74.40
28845;DHT22;15976;47.938;7.758;2022-11-20T01:39:06;9.60;74.40
28845;DHT22;15976;47.938;7.758;2022-11-20T01:41:34;9.60;74.40
28845;DHT22;15976;47.938;7.758;2022-11-20T01:44:22;9.60;74.40
28845;DHT22;15976;47.938;7.758;2022-11-20T01:46:58;9.60;74.40
28845;DHT22;15976;47.938;7.758;2022-11-20T01:49:42;9.60;74.40
28845;DHT22;15976;47.938;7.758;2022-11-20T01:52:16;9.60;74.40
28845;DHT22;15976;47.938;7.758;2022-11-20T01:54:49;9.60;74.40
28845;DHT22;15976;47.938;7.758;2022-11-20T01:57:19;9.60;74.50
28845;DHT22;15976;47.938;7.758;2022-11-20T01:59:52;9.60;74.40
28845;DHT22;15976;47.938;7.758;2022-11-20T02:02:21;9.60;74.40
28845;DHT22;15976;47.938;7.758;2022-11-20T02:04:49;9.50;74.40
28845;DHT22;15976;47.938;7.758;2022-11-20T02:07:19;9.60;74.50
28845;DHT22;15976;47.938;7.758;2022-11-20T02:09:47;9.50;74.50
28845;DHT22;15976;47.938;7.758;2022-11-20T02:12:14;9.60;74.60
28845;DHT22;15976;47.938;7.758;2022-11-20T02:15:01;9.60;74.70
28845;DHT22;15976;47.938;7.758;2022-11-20T02:17:28;9.60;74.60
28845;DHT22;15976;47.938;7.758;2022-11-20T02:19:56;9.60;74.60
28845;DHT22;15976;47.938;7.758;2022-11-20T02:22:38;9.50;74.60
28845;DHT22;15976;47.938;7.758;2022-11-20T02:25:08;9.60;74.60
28845;DHT22;15976;47.938;7.758;2022-11-20T02:27:36;9.60;74.60
28845;DHT22;15976;47.938;7.758;2022-11-20T02:30:04;9.60;74.60
28845;DHT22;15976;47.938;7.758;2022-11-20T02:32:35;9.60;74.60
28845;DHT22;15976;47.938;7.758;2022-11-20T02:35:39;9.60;74.50
28845;DHT22;15976;47.938;7.758;2022-11-20T02:38:01;9.60;74.60
28845;DHT22;15976;47.938;7.758;2022-11-20T02:40:29;9.50;74.60
28845;DHT22;15976;47.938;7.758;2022-11-20T02:42:57;9.50;74.60
28845;DHT22;15976;47.938;7.758;2022-11-20T02:45:24;9.60;74.60
28845;DHT22;15976;47.938;7.758;2022-11-20T02:47:52;9.50;74.50
28845;DHT22;15976;47.938;7.758;2022-11-20T02:50:19;9.50;74.40
28845;DHT22;15976;47.938;7.758;2022-11-20T02:52:46;9.50;74.50
28845;DHT22;15976;47.938;7.758;2022-11-20T02:55:13;9.50;74.50
28845;DHT22;15976;47.938;7.758;2022-11-20T02:57:40;9.50;74.50
28845;DHT22;15976;47.938;7.758;2022-11-20T03:00:08;9.50;74.40
28845;DHT22;15976;47.938;7.758;2022-11-20T03:02:36;9.50;74.40
28845;DHT22;15976;47.938;7.758;2022-11-20T03:05:03;9.50;74.40
28845;DHT22;15976;47.938;7.758;2022-11-20T03:07:31;9.50;74.50
28845;DHT22;15976;47.938;7.758;2022-11-20T03:09:58;9.50;74.50
28845;DHT22;15976;47.938;7.758;2022-11-20T03:12:25;9.50;74.50
28845;DHT22;15976;47.938;7.758;2022-11-20T03:14:52;9.50;74.40
28845;DHT22;15976;47.938;7.758;2022-11-20T03:17:19;9.50;74.40
28845;DHT22;15976;47.938;7.758;2022-11-20T03:19:46;9.50;74.40
28845;DHT22;15976;47.938;7.758;2022-11-20T03:22:13;9.50;74.50
28845;DHT22;15976;47.938;7.758;2022-11-20T03:24:40;9.50;74.60
28845;DHT22;15976;47.938;7.758;2022-11-20T03:27:07;9.50;74.60
28845;DHT22;15976;47.938;7.758;2022-11-20T03:29:37;9.50;74.60
28845;DHT22;15976;47.938;7.758;2022-11-20T03:32:04;9.50;74.50
28845;DHT22;15976;47.938;7.758;2022-11-20T03:34:31;9.50;74.50
28845;DHT22;15976;47.938;7.758;2022-11-20T03:36:58;9.50;74.40
28845;DHT22;15976;47.938;7.758;2022-11-20T03:39:25;9.50;74.40
28845;DHT22;15976;47.938;7.758;2022-11-20T03:41:53;9.50;74.30
28845;DHT22;15976;47.938;7.758;2022-11-20T03:44:21;9.50;74.30
28845;DHT22;15976;47.938;7.758;2022-11-20T03:46:49;9.50;74.40
28845;DHT22;15976;47.938;7.758;2022-11-20T03:49:16;9.40;74.40
28845;DHT22;15976;47.938;7.758;2022-11-20T03:51:43;9.40;74.50
28845;DHT22;15976;47.938;7.758;2022-11-20T03:54:10;9.40;74.50
28845;DHT22;15976;47.938;7.758;2022-11-20T03:56:38;9.50;74.50
28845;DHT22;15976;47.938;7.758;2022-11-20T03:59:06;9.40;74.40
28845;DHT22;15976;47.938;7.758;2022-11-20T04:01:35;9.50;74.60
28845;DHT22;15976;47.938;7.758;2022-11-20T04:04:04;9.40;74.50
28845;DHT22;15976;47.938;7.758;2022-11-20T04:06:36;9.50;74.50
28845;DHT22;15976;47.938;7.758;2022-11-20T04:09:04;9.50;74.40
28845;DHT22;15976;47.938;7.758;2022-11-20T04:11:36;9.40;74.30
28845;DHT22;15976;47.938;7.758;2022-11-20T04:14:05;9.40;74.30
28845;DHT22;15976;47.938;7.758;2022-11-20T04:16:35;9.40;74.40
28845;DHT22;15976;47.938;7.758;2022-11-20T04:19:05;9.40;74.40
28845;DHT22;15976;47.938;7.758;2022-11-20T04:21:33;9.40;74.50
28845;DHT22;15976;47.938;7.758;2022-11-20T04:24:00;9.40;74.60
28845;DHT22;15976;47.938;7.758;2022-11-20T04:26:29;9.40;74.40
28845;DHT22;15976;47.938;7.758;2022-11-20T04:28:58;9.40;74.50
28845;DHT22;15976;47.938;7.758;2022-11-20T04:31:27;9.40;74.40
28845;DHT22;15976;47.938;7.758;2022-11-20T04:33:55;9.40;74.30
28845;DHT22;15976;47.938;7.758;2022-11-20T04:36:27;9.40;74.30
28845;DHT22;15976;47.938;7.758;2022-11-20T04:38:56;9.30;74.20
28845;DHT22;15976;47.938;7.758;2022-11-20T04:41:29;9.30;74.20
28845;DHT22;15976;47.938;7.758;2022-11-20T04:43:59;9.30;74.10
28845;DHT22;15976;47.938;7.758;2022-11-20T04:46:31;9.30;73.90
28845;DHT22;15976;47.938;7.758;2022-11-20T04:48:59;9.20;73.70
28845;DHT22;15976;47.938;7.758;2022-11-20T04:51:26;9.20;73.70
28845;DHT22;15976;47.938;7.758;2022-11-20T04:53:54;9.20;74.00
28845;DHT22;15976;47.938;7.758;2022-11-20T04:56:21;9.20;74.10
28845;DHT22;15976;47.938;7.758;2022-11-20T04:58:48;9.20;74.20
28845;DHT22;15976;47.938;7.758;2022-11-20T05:01:21;9.10;74.20
28845;DHT22;15976;47.938;7.758;2022-11-20T05:03:48;9.20;74.40
28845;DHT22;15976;47.938;7.758;2022-11-20T05:06:17;9.20;74.40
28845;DHT22;15976;47.938;7.758;2022-11-20T05:08:45;9.20;74.40
28845;DHT22;15976;47.938;7.758;2022-11-20T05:11:17;9.20;74.40
28845;DHT22;15976;47.938;7.758;2022-11-20T05:13:45;9.20;74.40
28845;DHT22;15976;47.938;7.758;2022-11-20T05:16:14;9.20;74.40
28845;DHT22;15976;47.938;7.758;2022-11-20T05:18:42;9.20;74.40
28845;DHT22;15976;47.938;7.758;2022-11-20T05:21:10;9.20;74.40
28845;DHT22;15976;47.938;7.758;2022-11-20T05:23:38;9.20;74.40
28845;DHT22;15976;47.938;7.758;2022-11-20T05:26:07;9.20;75.30
28845;DHT22;15976;47.938;7.758;2022-11-20T05:28:35;9.20;74.50
28845;DHT22;15976;47.938;7.758;2022-11-20T05:31:10;9.20;74.50
28845;DHT22;15976;47.938;7.758;2022-11-20T05:33:40;9.10;74.40
28845;DHT22;15976;47.938;7.758;2022-11-20T05:36:08;9.10;74.50
28845;DHT22;15976;47.938;7.758;2022-11-20T05:38:36;9.20;74.60
28845;DHT22;15976;47.938;7.758;2022-11-20T05:41:11;9.20;74.60
28845;DHT22;15976;47.938;7.758;2022-11-20T05:43:40;9.20;74.60
28845;DHT22;15976;47.938;7.758;2022-11-20T05:46:09;9.20;74.70
28845;DHT22;15976;47.938;7.758;2022-11-20T05:48:38;9.20;74.70
28845;DHT22;15976;47.938;7.758;2022-11-20T05:51:07;9.20;74.60
28845;DHT22;15976;47.938;7.758;2022-11-20T05:53:35;9.20;74.70
28845;DHT22;15976;47.938;7.758;2022-11-20T05:56:04;9.20;74.80
28845;DHT22;15976;47.938;7.758;2022-11-20T05:58:32;9.20;74.80
28845;DHT22;15976;47.938;7.758;2022-11-20T06:01:21;9.20;74.80
28845;DHT22;15976;47.938;7.758;2022-11-20T06:03:48;9.20;74.90
28845;DHT22;15976;47.938;7.758;2022-11-20T06:06:18;9.20;74.80
28845;DHT22;15976;47.938;7.758;2022-11-20T06:08:46;9.20;74.80
28845;DHT22;15976;47.938;7.758;2022-11-20T06:11:14;9.20;74.70
28845;DHT22;15976;47.938;7.758;2022-11-20T06:13:42;9.10;74.60
28845;DHT22;15976;47.938;7.758;2022-11-20T06:16:10;9.20;74.80
28845;DHT22;15976;47.938;7.758;2022-11-20T06:18:37;9.20;74.80
28845;DHT22;15976;47.938;7.758;2022-11-20T06:21:13;9.10;75.60
28845;DHT22;15976;47.938;7.758;2022-11-20T06:23:41;9.20;74.90
28845;DHT22;15976;47.938;7.758;2022-11-20T06:26:13;9.20;75.00
28845;DHT22;15976;47.938;7.758;2022-11-20T06:28:40;9.20;75.00
28845;DHT22;15976;47.938;7.758;2022-11-20T06:31:10;9.20;74.90
28845;DHT22;15976;47.938;7.758;2022-11-20T06:33:38;9.20;75.00
28845;DHT22;15976;47.938;7.758;2022-11-20T06:36:06;9.20;74.90
28845;DHT22;15976;47.938;7.758;2022-11-20T06:38:37;9.20;75.10
28845;DHT22;15976;47.938;7.758;2022-11-20T06:41:11;9.20;75.10
28845;DHT22;15976;47.938;7.758;2022-11-20T06:43:39;9.20;75.10
28845;DHT22;15976;47.938;7.758;2022-11-20T06:46:06;9.20;75.10
28845;DHT22;15976;47.938;7.758;2022-11-20T06:48:33;9.20;75.20
28845;DHT22;15976;47.938;7.758;2022-11-20T06:51:03;9.20;75.20
28845;DHT22;15976;47.938;7.758;2022-11-20T06:53:30;9.30;75.30
28845;DHT22;15976;47.938;7.758;2022-11-20T06:55:57;9.30;75.20
28845;DHT22;15976;47.938;7.758;2022-11-20T06:58:27;9.20;75.10
28845;DHT22;15976;47.938;7.758;2022-11-20T07:00:58;9.20;75.10
28845;DHT22;15976;47.938;7.758;2022-11-20T07:03:26;9.20;75.10
28845;DHT22;15976;47.938;7.758;2022-11-20T07:05:57;9.20;75.20
28845;DHT22;15976;47.938;7.758;2022-11-20T07:08:25;9.30;75.30
28845;DHT22;15976;47.938;7.758;2022-11-20T07:10:52;9.30;75.30
28845;DHT22;15976;47.938;7.758;2022-11-20T07:13:19;9.30;75.20
28845;DHT22;15976;47.938;7.758;2022-11-20T07:15:46;9.20;75.10
28845;DHT22;15976;47.938;7.758;2022-11-20T07:18:13;9.20;75.00
28845;DHT22;15976;47.938;7.758;2022-11-20T07:20:40;9.20;75.10
28845;DHT22;15976;47.938;7.758;2022-11-20T07:23:07;9.20;75.10
28845;DHT22;15976;47.938;7.758;2022-11-20T07:25:34;9.30;75.20
28845;DHT22;15976;47.938;7.758;2022-11-20T07:28:02;9.30;75.20
28845;DHT22;15976;47.938;7.758;2022-11-20T07:30:30;9.30;75.20
28845;DHT22;15976;47.938;7.758;2022-11-20T07:32:57;9.30;75.20
28845;DHT22;15976;47.938;7.758;2022-11-20T07:35:25;9.30;75.30
28845;DHT22;15976;47.938;7.758;2022-11-20T07:37:52;9.30;75.30
28845;DHT22;15976;47.938;7.758;2022-11-20T07:40:19;9.30;75.20
28845;DHT22;15976;47.938;7.758;2022-11-20T07:42:54;9.30;75.20
28845;DHT22;15976;47.938;7.758;2022-11-20T07:45:23;9.30;75.80
28845;DHT22;15976;47.938;7.758;2022-11-20T07:47:51;9.30;75.10
28845;DHT22;15976;47.938;7.758;2022-11-20T07:50:20;9.30;75.10
28845;DHT22;15976;47.938;7.758;2022-11-20T07:53:00;9.30;75.10
28845;DHT22;15976;47.938;7.758;2022-11-20T07:55:27;9.30;75.20
28845;DHT22;15976;47.938;7.758;2022-11-20T07:57:55;9.30;75.30
28845;DHT22;15976;47.938;7.758;2022-11-20T08:00:24;9.40;75.40
28845;DHT22;15976;47.938;7.758;2022-11-20T08:02:51;9.40;75.50
28845;DHT22;15976;47.938;7.758;2022-11-20T08:05:18;9.40;75.50
28845;DHT22;15976;47.938;7.758;2022-11-20T08:07:45;9.40;75.40
28845;DHT22;15976;47.938;7.758;2022-11-20T08:10:14;9.40;75.30
28845;DHT22;15976;47.938;7.758;2022-11-20T08:12:47;9.40;75.30
28845;DHT22;15976;47.938;7.758;2022-11-20T08:15:34;9.40;75.20
28845;DHT22;15976;47.938;7.758;2022-11-20T08:18:09;9.40;75.20
28845;DHT22;15976;47.938;7.758;2022-11-20T08:21:01;9.30;75.20
28845;DHT22;15976;47.938;7.758;2022-11-20T08:23:28;9.40;75.40
28845;DHT22;15976;47.938;7.758;2022-11-20T08:25:55;9.40;75.50
28845;DHT22;15976;47.938;7.758;2022-11-20T08:28:22;9.40;75.40
28845;DHT22;15976;47.938;7.758;2022-11-20T08:30:50;9.40;75.40
28845;DHT22;15976;47.938;7.758;2022-11-20T08:33:17;9.50;75.40
28845;DHT22;15976;47.938;7.758;2022-11-20T08:35:45;9.50;75.40
28845;DHT22;15976;47.938;7.758;2022-11-20T08:38:12;9.50;75.40
28845;DHT22;15976;47.938;7.758;2022-11-20T08:40:39;9.50;75.40
28845;DHT22;15976;47.938;7.758;2022-11-20T08:43:06;9.60;75.50
28845;DHT22;15976;47.938;7.758;2022-11-20T08:45:33;9.60;75.40
28845;DHT22;15976;47.938;7.758;2022-11-20T08:48:02;9.60;75.30
28845;DHT22;15976;47.938;7.758;2022-11-20T08:50:30;9.60;75.40
28845;DHT22;15976;47.938;7.758;2022-11-20T08:53:04;9.60;75.00
28845;DHT22;15976;47.938;7.758;2022-11-20T08:55:31;9.60;74.80
28845;DHT22;15976;47.938;7.758;2022-11-20T08:57:58;9.60;74.70
28845;DHT22;15976;47.938;7.758;2022-11-20T09:00:29;9.60;74.60
28845;DHT22;15976;47.938;7.758;2022-11-20T09:02:56;9.50;74.30
28845;DHT22;15976;47.938;7.758;2022-11-20T09:05:25;9.50;74.40
28845;DHT22;15976;47.938;7.758;2022-11-20T09:07:55;9.60;74.40
28845;DHT22;15976;47.938;7.758;2022-11-20T09:10:22;9.50;74.30
28845;DHT22;15976;47.938;7.758;2022-11-20T09:13:09;9.60;74.40
28845;DHT22;15976;47.938;7.758;2022-11-20T09:15:36;9.60;74.60
28845;DHT22;15976;47.938;7.758;2022-11-20T09:18:03;9.60;75.20
28845;DHT22;15976;47.938;7.758;2022-11-20T09:20:31;9.60;75.60
28845;DHT22;15976;47.938;7.758;2022-11-20T09:22:58;9.60;75.80
28845;DHT22;15976;47.938;7.758;2022-11-20T09:25:25;9.70;75.90
28845;DHT22;15976;47.938;7.758;2022-11-20T09:27:56;9.70;75.80
28845;DHT22;15976;47.938;7.758;2022-11-20T09:30:24;9.70;75.80
28845;DHT22;15976;47.938;7.758;2022-11-20T09:32:51;9.70;75.80
28845;DHT22;15976;47.938;7.758;2022-11-20T09:35:18;9.70;76.00
28845;DHT22;15976;47.938;7.758;2022-11-20T09:37:45;9.80;76.00
28845;DHT22;15976;47.938;7.758;2022-11-20T09:40:34;9.80;76.10
28845;DHT22;15976;47.938;7.758;2022-11-20T09:43:15;9.90;76.10
28845;DHT22;15976;47.938;7.758;2022-11-20T09:56:28;10.10;75.70
28845;DHT22;15976;47.938;7.758;2022-11-20T09:58:59;10.10;75.60
28845;DHT22;15976;47.938;7.758;2022-11-20T10:01:30;10.10;75.70
28845;DHT22;15976;47.938;7.758;2022-11-20T10:04:08;10.10;75.50
28845;DHT22;15976;47.938;7.758;2022-11-20T10:06:47;10.10;75.60
28845;DHT22;15976;47.938;7.758;2022-11-20T10:09:38;10.10;75.70
28845;DHT22;15976;47.938;7.758;2022-11-20T10:14:48;10.20;75.70
28845;DHT22;15976;47.938;7.758;2022-11-20T10:17:37;10.20;75.40
28845;DHT22;15976;47.938;7.758;2022-11-20T10:21:14;10.20;75.30
28845;DHT22;15976;47.938;7.758;2022-11-20T10:31:17;10.30;75.80
28845;DHT22;15976;47.938;7.758;2022-11-20T10:33:50;10.40;76.10
28845;DHT22;15976;47.938;7.758;2022-11-20T10:36:46;10.50;76.50
28845;DHT22;15976;47.938;7.758;2022-11-20T10:39:27;10.60;76.70
28845;DHT22;15976;47.938;7.758;2022-11-20T10:41:56;10.70;76.40
28845;DHT22;15976;47.938;7.758;2022-11-20T10:44:29;10.80;76.20
28845;DHT22;15976;47.938;7.758;2022-11-20T10:47:25;10.80;75.80
28845;DHT22;15976;47.938;7.758;2022-11-20T10:49:56;10.80;75.40
28845;DHT22;15976;47.938;7.758;2022-11-20T11:00:18;10.80;74.70
28845;DHT22;15976;47.938;7.758;2022-11-20T11:02:49;10.80;74.70
28845;DHT22;15976;47.938;7.758;2022-11-20T11:08:03;10.80;74.70
28845;DHT22;15976;47.938;7.758;2022-11-20T11:10:53;10.90;74.90
28845;DHT22;15976;47.938;7.758;2022-11-20T11:13:26;11.00;75.20
28845;DHT22;15976;47.938;7.758;2022-11-20T11:15:53;11.10;75.70
28845;DHT22;15976;47.938;7.758;2022-11-20T11:18:32;11.30;75.60
28845;DHT22;15976;47.938;7.758;2022-11-20T11:21:02;11.30;74.70
28845;DHT22;15976;47.938;7.758;2022-11-20T11:23:38;11.40;74.40
28845;DHT22;15976;47.938;7.758;2022-11-20T11:26:26;11.40;73.70
28845;DHT22;15976;47.938;7.758;2022-11-20T11:28:55;11.30;73.00
28845;DHT22;15976;47.938;7.758;2022-11-20T11:31:34;11.30;73.20
28845;DHT22;15976;47.938;7.758;2022-11-20T11:36:38;11.40;73.10
28845;DHT22;15976;47.938;7.758;2022-11-20T11:39:11;11.40;73.20
28845;DHT22;15976;47.938;7.758;2022-11-20T11:41:41;11.50;73.00
28845;DHT22;15976;47.938;7.758;2022-11-20T11:47:11;11.50;73.10
28845;DHT22;15976;47.938;7.758;2022-11-20T11:49:39;11.70;73.70
28845;DHT22;15976;47.938;7.758;2022-11-20T11:52:12;11.80;73.40
28845;DHT22;15976;47.938;7.758;2022-11-20T11:57:29;11.80;71.20
28845;DHT22;15976;47.938;7.758;2022-11-20T12:00:12;11.80;70.60
28845;DHT22;15976;47.938;7.758;2022-11-20T12:08:10;11.60;70.00
28845;DHT22;15976;47.938;7.758;2022-11-20T12:10:57;11.50;70.00
28845;DHT22;15976;47.938;7.758;2022-11-20T12:16:35;11.50;69.90
28845;DHT22;15976;47.938;7.758;2022-11-20T12:19:11;11.40;69.70
28845;DHT22;15976;47.938;7.758;2022-11-20T12:37:33;11.20;70.50
28845;DHT22;15976;47.938;7.758;2022-11-20T12:42:55;11.30;71.00
28845;DHT22;15976;47.938;7.758;2022-11-20T12:46:01;11.40;71.20
28845;DHT22;15976;47.938;7.758;2022-11-20T12:55:14;11.80;71.50
28845;DHT22;15976;47.938;7.758;2022-11-20T13:07:16;11.60;69.60
28845;DHT22;15976;47.938;7.758;2022-11-20T13:09:46;11.60;70.00
28845;DHT22;15976;47.938;7.758;2022-11-20T13:12:24;11.70;70.00
28845;DHT22;15976;47.938;7.758;2022-11-20T13:17:41;11.80;69.50
28845;DHT22;15976;47.938;7.758;2022-11-20T13:20:16;11.80;69.90
28845;DHT22;15976;47.938;7.758;2022-11-20T13:22:54;11.90;69.60
28845;DHT22;15976;47.938;7.758;2022-11-20T13:27:53;11.90;68.00
28845;DHT22;15976;47.938;7.758;2022-11-20T13:30:22;11.80;67.30
28845;DHT22;15976;47.938;7.758;2022-11-20T13:33:32;11.70;67.00
28845;DHT22;15976;47.938;7.758;2022-11-20T13:36:23;11.60;67.10
28845;DHT22;15976;47.938;7.758;2022-11-20T13:38:53;11.70;67.80
28845;DHT22;15976;47.938;7.758;2022-11-20T13:41:25;11.80;68.40
28845;DHT22;15976;47.938;7.758;2022-11-20T13:44:46;11.90;68.20
28845;DHT22;15976;47.938;7.758;2022-11-20T13:46:47;11.80;67.50
28845;DHT22;15976;47.938;7.758;2022-11-20T13:49:33;11.80;67.00
28845;DHT22;15976;47.938;7.758;2022-11-20T14:01:21;11.30;66.30
28845;DHT22;15976;47.938;7.758;2022-11-20T14:03:45;11.20;66.60
28845;DHT22;15976;47.938;7.758;2022-11-20T14:06:42;11.20;67.00
28845;DHT22;15976;47.938;7.758;2022-11-20T14:09:24;11.20;67.30
28845;DHT22;15976;47.938;7.758;2022-11-20T14:11:51;11.20;67.50
28845;DHT22;15976;47.938;7.758;2022-11-20T14:14:24;11.20;67.60
28845;DHT22;15976;47.938;7.758;2022-11-20T14:17:03;11.20;67.60
28845;DHT22;15976;47.938;7.758;2022-11-20T14:19:31;11.20;67.40
28845;DHT22;15976;47.938;7.758;2022-11-20T14:24:46;11.20;67.40
28845;DHT22;15976;47.938;7.758;2022-11-20T14:27:19;11.20;67.40
28845;DHT22;15976;47.938;7.758;2022-11-20T14:29:48;11.20;68.10
28845;DHT22;15976;47.938;7.758;2022-11-20T14:32:17;11.20;67.20
28845;DHT22;15976;47.938;7.758;2022-11-20T14:34:47;11.20;67.20
28845;DHT22;15976;47.938;7.758;2022-11-20T14:37:37;11.10;67.20
28845;DHT22;15976;47.938;7.758;2022-11-20T14:42:54;11.20;67.40
28845;DHT22;15976;47.938;7.758;2022-11-20T14:45:22;11.10;67.30
28845;DHT22;15976;47.938;7.758;2022-11-20T14:54:12;11.10;67.00
28845;DHT22;15976;47.938;7.758;2022-11-20T14:56:40;11.00;67.00
28845;DHT22;15976;47.938;7.758;2022-11-20T14:59:08;11.00;67.90
28845;DHT22;15976;47.938;7.758;2022-11-20T15:01:36;11.00;67.00
28845;DHT22;15976;47.938;7.758;2022-11-20T15:04:10;11.00;66.90
28845;DHT22;15976;47.938;7.758;2022-11-20T15:06:48;11.10;66.80
28845;DHT22;15976;47.938;7.758;2022-11-20T15:09:15;11.00;66.70
28845;DHT22;15976;47.938;7.758;2022-11-20T15:11:59;11.00;66.80
28845;DHT22;15976;47.938;7.758;2022-11-20T15:14:28;11.00;66.70
28845;DHT22;15976;47.938;7.758;2022-11-20T15:16:57;11.00;66.70
28845;DHT22;15976;47.938;7.758;2022-11-20T15:19:25;10.90;66.60
28845;DHT22;15976;47.938;7.758;2022-11-20T15:21:53;10.90;66.70
28845;DHT22;15976;47.938;7.758;2022-11-20T15:24:20;11.00;67.80
28845;DHT22;15976;47.938;7.758;2022-11-20T15:26:47;11.00;67.10
28845;DHT22;15976;47.938;7.758;2022-11-20T15:29:16;11.00;67.20
28845;DHT22;15976;47.938;7.758;2022-11-20T15:31:47;11.00;67.00
28845;DHT22;15976;47.938;7.758;2022-11-20T15:34:15;11.00;66.70
28845;DHT22;15976;47.938;7.758;2022-11-20T15:36:43;10.90;66.70
28845;DHT22;15976;47.938;7.758;2022-11-20T15:39:11;10.90;66.70
28845;DHT22;15976;47.938;7.758;2022-11-20T15:41:39;10.90;66.50
28845;DHT22;15976;47.938;7.758;2022-11-20T15:44:06;10.90;66.40
28845;DHT22;15976;47.938;7.758;2022-11-20T15:46:37;10.80;66.40
28845;DHT22;15976;47.938;7.758;2022-11-20T15:49:06;10.80;66.40
28845;DHT22;15976;47.938;7.758;2022-11-20T15:51:39;10.70;66.30
28845;DHT22;15976;47.938;7.758;2022-11-20T15:54:26;10.70;66.30
28845;DHT22;15976;47.938;7.758;2022-11-20T15:56:53;10.70;66.40
28845;DHT22;15976;47.938;7.758;2022-11-20T15:59:20;10.60;66.20
28845;DHT22;15976;47.938;7.758;2022-11-20T16:01:48;10.60;66.30
28845;DHT22;15976;47.938;7.758;2022-11-20T16:04:16;10.60;66.20
28845;DHT22;15976;47.938;7.758;2022-11-20T16:06:52;10.60;66.10
28845;DHT22;15976;47.938;7.758;2022-11-20T16:09:20;10.60;66.10
28845;DHT22;15976;47.938;7.758;2022-11-20T16:11:47;10.60;66.10
28845;DHT22;15976;47.938;7.758;2022-11-20T16:14:14;10.60;66.10
28845;DHT22;15976;47.938;7.758;2022-11-20T16:16:59;10.60;66.10
28845;DHT22;15976;47.938;7.758;2022-11-20T16:19:26;10.60;66.10
28845;DHT22;15976;47.938;7.758;2022-11-20T16:21:53;10.60;66.10
28845;DHT22;15976;47.938;7.758;2022-11-20T16:24:28;10.50;66.10
28845;DHT22;15976;47.938;7.758;2022-11-20T16:26:57;10.60;66.10
28845;DHT22;15976;47.938;7.758;2022-11-20T16:29:24;10.50;66.20
28845;DHT22;15976;47.938;7.758;2022-11-20T16:31:51;10.50;66.30
28845;DHT22;15976;47.938;7.758;2022-11-20T16:34:18;10.50;66.30
28845;DHT22;15976;47.938;7.758;2022-11-20T16:36:45;10.50;66.30
28845;DHT22;15976;47.938;7.758;2022-11-20T16:39:12;10.50;66.40
28845;DHT22;15976;47.938;7.758;2022-11-20T16:41:44;10.50;66.40
28845;DHT22;15976;47.938;7.758;2022-11-20T16:44:11;10.50;66.40
28845;DHT22;15976;47.938;7.758;2022-11-20T16:46:38;10.50;66.60
28845;DHT22;15976;47.938;7.758;2022-11-20T16:49:11;10.50;66.60
28845;DHT22;15976;47.938;7.758;2022-11-20T16:51:38;10.50;66.50
28845;DHT22;15976;47.938;7.758;2022-11-20T16:54:08;10.50;66.40
28845;DHT22;15976;47.938;7.758;2022-11-20T16:56:35;10.50;66.40
28845;DHT22;15976;47.938;7.758;2022-11-20T16:59:16;10.50;66.40
28845;DHT22;15976;47.938;7.758;2022-11-20T17:01:43;10.50;66.30
28845;DHT22;15976;47.938;7.758;2022-11-20T17:04:10;10.50;66.20
28845;DHT22;15976;47.938;7.758;2022-11-20T17:06:41;10.50;66.20
28845;DHT22;15976;47.938;7.758;2022-11-20T17:09:10;10.50;66.10
28845;DHT22;15976;47.938;7.758;2022-11-20T17:11:37;10.50;66.20
28845;DHT22;15976;47.938;7.758;2022-11-20T17:14:06;10.40;66.00
28845;DHT22;15976;47.938;7.758;2022-11-20T17:16:36;10.40;66.00
28845;DHT22;15976;47.938;7.758;2022-11-20T17:19:04;10.40;66.00
28845;DHT22;15976;47.938;7.758;2022-11-20T17:21:33;10.40;66.00
28845;DHT22;15976;47.938;7.758;2022-11-20T17:24:04;10.40;66.00
28845;DHT22;15976;47.938;7.758;2022-11-20T17:26:32;10.40;66.10
28845;DHT22;15976;47.938;7.758;2022-11-20T17:29:05;10.40;66.00
28845;DHT22;15976;47.938;7.758;2022-11-20T17:31:32;10.30;65.60
28845;DHT22;15976;47.938;7.758;2022-11-20T17:34:04;10.30;65.20
28845;DHT22;15976;47.938;7.758;2022-11-20T17:36:31;10.20;65.40
28845;DHT22;15976;47.938;7.758;2022-11-20T17:38:59;10.20;65.50
28845;DHT22;15976;47.938;7.758;2022-11-20T17:41:27;10.20;65.90
28845;DHT22;15976;47.938;7.758;2022-11-20T17:43:57;10.20;66.20
28845;DHT22;15976;47.938;7.758;2022-11-20T17:46:32;10.20;66.40
28845;DHT22;15976;47.938;7.758;2022-11-20T17:49:01;10.20;66.40
28845;DHT22;15976;47.938;7.758;2022-11-20T17:51:30;10.20;66.50
28845;DHT22;15976;47.938;7.758;2022-11-20T17:54:06;10.10;66.50
28845;DHT22;15976;47.938;7.758;2022-11-20T17:56:38;10.20;66.60
28845;DHT22;15976;47.938;7.758;2022-11-20T17:59:24;10.10;66.50
28845;DHT22;15976;47.938;7.758;2022-11-20T18:01:51;10.10;66.00